createdAt,value
2023-04-27T00:00:59.762Z,60.75
2023-04-27T00:01:59.923Z,62.84
2023-04-27T00:03:00.004Z,62.36
2023-04-27T00:03:59.887Z,63.00
2023-04-27T00:04:59.903Z,61.23
2023-04-27T00:05:59.907Z,63.65
2023-04-27T00:06:59.693Z,60.10
2023-04-27T00:07:59.695Z,62.20
2023-04-27T00:08:59.693Z,62.52
2023-04-27T00:09:59.660Z,62.20
2023-04-27T00:10:59.639Z,61.23
2023-04-27T00:11:59.617Z,60.75
2023-04-27T00:12:59.688Z,61.23
2023-04-27T00:13:59.595Z,61.07
2023-04-27T00:14:59.597Z,58.97
2023-04-27T00:15:59.607Z,61.71
2023-04-27T00:16:59.571Z,61.71
2023-04-27T00:17:59.602Z,61.23
2023-04-27T00:18:59.551Z,60.59
2023-04-27T00:19:59.539Z,62.20
2023-04-27T00:20:59.555Z,60.42
2023-04-27T00:21:59.507Z,60.75
2023-04-27T00:22:59.502Z,61.07
2023-04-27T00:23:59.579Z,63.33
2023-04-27T00:24:59.472Z,63.00
2023-04-27T00:25:59.473Z,60.10
2023-04-27T00:26:59.456Z,60.26
2023-04-27T00:27:59.441Z,59.78
2023-04-27T00:28:59.473Z,61.39
2023-04-27T00:29:59.438Z,62.84
2023-04-27T00:30:59.404Z,61.07
2023-04-27T00:31:59.460Z,58.01
2023-04-27T00:32:59.450Z,61.23
2023-04-27T00:33:59.377Z,61.87
2023-04-27T00:34:59.398Z,60.75
2023-04-27T00:35:59.376Z,62.52
2023-04-27T00:36:59.356Z,61.39
2023-04-27T00:37:59.326Z,60.91
2023-04-27T00:38:59.336Z,61.23
2023-04-27T00:39:59.330Z,62.04
2023-04-27T00:40:59.313Z,61.39
2023-04-27T00:41:59.300Z,60.42
2023-04-27T00:42:59.286Z,62.04
2023-04-27T00:43:59.279Z,59.94
2023-04-27T00:44:59.288Z,60.10
2023-04-27T00:45:59.310Z,63.00
2023-04-27T00:46:59.246Z,63.00
2023-04-27T00:47:59.256Z,59.30
2023-04-27T00:48:59.220Z,58.97
2023-04-27T00:49:59.236Z,57.69
2023-04-27T00:50:59.178Z,57.69
2023-04-27T00:51:59.192Z,61.07
2023-04-27T00:52:59.193Z,61.39
2023-04-27T00:53:59.162Z,61.39
2023-04-27T00:54:59.139Z,60.91
2023-04-27T00:55:59.198Z,63.00
2023-04-27T00:56:59.118Z,62.36
2023-04-27T00:57:59.103Z,61.07
2023-04-27T00:58:59.098Z,60.42
2023-04-27T00:59:59.082Z,61.71
2023-04-27T01:00:59.159Z,62.36
2023-04-27T01:01:59.089Z,61.87
2023-04-27T01:02:59.112Z,62.68
2023-04-27T01:03:59.193Z,63.00
2023-04-27T01:04:59.020Z,63.00
2023-04-27T01:05:59.031Z,62.84
2023-04-27T01:06:59.013Z,60.59
2023-04-27T01:07:58.995Z,62.04
2023-04-27T01:08:58.983Z,62.84
2023-04-27T01:09:58.985Z,61.23
2023-04-27T01:10:58.953Z,61.87
2023-04-27T01:11:59.193Z,64.45
2023-04-27T01:12:58.938Z,63.00
2023-04-27T01:13:58.923Z,61.87
2023-04-27T01:14:58.898Z,61.23
2023-04-27T01:15:58.907Z,62.84
2023-04-27T01:16:58.995Z,63.33
2023-04-27T01:17:58.948Z,60.59
2023-04-27T01:18:58.857Z,60.91
2023-04-27T01:19:58.853Z,62.68
2023-04-27T01:20:59.021Z,63.49
2023-04-27T01:21:58.828Z,64.45
2023-04-27T01:22:58.846Z,63.16
2023-04-27T01:23:58.822Z,62.04
2023-04-27T01:24:58.793Z,63.00
2023-04-27T01:25:58.770Z,63.00
2023-04-27T01:26:58.781Z,62.68
2023-04-27T01:27:58.803Z,62.68
2023-04-27T01:28:58.750Z,62.20
2023-04-27T01:29:58.751Z,62.52
2023-04-27T01:30:58.751Z,61.23
2023-04-27T01:31:58.725Z,63.65
2023-04-27T01:32:58.733Z,63.65
2023-04-27T01:33:58.719Z,63.33
2023-04-27T01:34:58.702Z,62.84
2023-04-27T01:35:58.672Z,60.59
2023-04-27T01:36:58.656Z,63.49
2023-04-27T01:37:58.641Z,63.16
2023-04-27T01:38:58.677Z,63.16
2023-04-27T01:39:58.622Z,62.68
2023-04-27T01:40:58.620Z,62.68
2023-04-27T01:41:58.820Z,61.39
2023-04-27T01:42:58.585Z,62.20
2023-04-27T01:43:58.626Z,64.13
2023-04-27T01:44:58.589Z,61.71
2023-04-27T01:45:58.574Z,63.33
2023-04-27T01:46:58.546Z,62.68
2023-04-27T01:47:58.589Z,62.84
2023-04-27T01:48:58.530Z,61.23
2023-04-27T01:49:58.566Z,62.52
2023-04-27T01:50:58.525Z,59.94
2023-04-27T01:51:58.489Z,58.97
2023-04-27T01:52:58.476Z,62.68
2023-04-27T01:53:58.476Z,62.20
2023-04-27T01:54:58.503Z,62.20
2023-04-27T01:55:58.474Z,61.55
2023-04-27T01:56:58.462Z,62.04
2023-04-27T01:57:58.427Z,61.23
2023-04-27T01:58:58.424Z,62.52
2023-04-27T01:59:58.587Z,62.36
2023-04-27T02:00:58.414Z,62.36
2023-04-27T02:01:58.459Z,61.39
2023-04-27T02:02:58.502Z,61.39
2023-04-27T02:03:58.546Z,62.68
2023-04-27T02:04:58.374Z,61.87
2023-04-27T02:05:58.351Z,61.55
2023-04-27T02:06:58.898Z,61.87
2023-04-27T02:07:58.340Z,62.68
2023-04-27T02:08:58.297Z,62.20
2023-04-27T02:09:58.304Z,60.91
2023-04-27T02:10:58.290Z,62.36
2023-04-27T02:11:58.270Z,62.52
2023-04-27T02:12:58.270Z,61.07
2023-04-27T02:13:58.250Z,62.04
2023-04-27T02:14:58.250Z,61.71
2023-04-27T02:15:58.791Z,62.52
2023-04-27T02:16:58.205Z,60.42
2023-04-27T02:17:58.209Z,62.52
2023-04-27T02:18:58.182Z,63.81
2023-04-27T02:19:58.171Z,63.16
2023-04-27T02:20:58.220Z,62.84
2023-04-27T02:21:58.146Z,64.78
2023-04-27T02:22:58.140Z,61.71
2023-04-27T02:23:58.119Z,64.61
2023-04-27T02:24:58.111Z,63.65
2023-04-27T02:25:58.159Z,63.16
2023-04-27T02:26:58.084Z,61.39
2023-04-27T02:27:58.073Z,61.07
2023-04-27T02:28:58.073Z,62.84
2023-04-27T02:29:58.080Z,61.87
2023-04-27T02:30:58.056Z,62.36
2023-04-27T02:31:58.149Z,62.68
2023-04-27T02:32:58.027Z,61.71
2023-04-27T02:33:58.013Z,61.07
2023-04-27T02:34:58.019Z,60.42
2023-04-27T02:35:57.996Z,62.36
2023-04-27T02:36:58.000Z,61.55
2023-04-27T02:37:57.964Z,61.39
2023-04-27T02:38:57.943Z,61.07
2023-04-27T02:39:57.943Z,62.84
2023-04-27T02:40:57.943Z,62.20
2023-04-27T02:41:57.911Z,61.39
2023-04-27T02:42:57.929Z,61.07
2023-04-27T02:43:57.884Z,60.42
2023-04-27T02:44:57.879Z,62.04
2023-04-27T02:45:57.859Z,61.23
2023-04-27T02:46:57.883Z,62.68
2023-04-27T02:47:57.926Z,61.55
2023-04-27T02:48:57.833Z,63.33
2023-04-27T02:49:57.817Z,63.49
2023-04-27T02:50:57.797Z,62.04
2023-04-27T02:51:57.807Z,63.65
2023-04-27T02:52:57.774Z,62.68
2023-04-27T02:53:57.817Z,61.07
2023-04-27T02:54:57.763Z,61.55
2023-04-27T02:55:57.746Z,63.16
2023-04-27T02:56:57.739Z,59.94
2023-04-27T02:57:57.751Z,60.26
2023-04-27T02:58:57.735Z,60.91
2023-04-27T02:59:57.698Z,64.13
2023-04-27T03:00:57.836Z,61.55
2023-04-27T03:01:57.692Z,62.20
2023-04-27T03:02:57.849Z,63.16
2023-04-27T03:03:57.834Z,61.87
2023-04-27T03:04:57.684Z,64.13
2023-04-27T03:05:57.614Z,63.97
2023-04-27T03:06:57.629Z,63.33
2023-04-27T03:07:57.601Z,62.68
2023-04-27T03:08:57.587Z,62.20
2023-04-27T03:09:57.625Z,63.97
2023-04-27T03:10:58.364Z,59.78
2023-04-27T03:11:57.555Z,63.16
2023-04-27T03:12:57.562Z,65.42
2023-04-27T03:13:57.561Z,64.13
2023-04-27T03:14:57.522Z,63.33
2023-04-27T03:15:57.621Z,62.68
2023-04-27T03:16:57.545Z,64.61
2023-04-27T03:17:57.531Z,63.16
2023-04-27T03:18:57.502Z,65.10
2023-04-27T03:19:57.495Z,64.61
2023-04-27T03:20:57.493Z,65.58
2023-04-27T03:21:57.455Z,64.61
2023-04-27T03:22:57.425Z,64.13
2023-04-27T03:23:57.454Z,62.52
2023-04-27T03:24:57.427Z,63.00
2023-04-27T03:25:57.396Z,63.81
2023-04-27T03:26:57.441Z,63.00
2023-04-27T03:27:57.392Z,63.33
2023-04-27T03:28:57.365Z,64.13
2023-04-27T03:29:57.373Z,65.42
2023-04-27T03:30:57.383Z,65.10
2023-04-27T03:31:57.395Z,64.13
2023-04-27T03:32:57.334Z,63.65
2023-04-27T03:33:57.320Z,63.65
2023-04-27T03:34:57.298Z,63.49
2023-04-27T03:35:57.313Z,62.84
2023-04-27T03:36:57.363Z,63.16
2023-04-27T03:37:57.263Z,63.16
2023-04-27T03:38:57.248Z,63.65
2023-04-27T03:39:57.255Z,61.71
2023-04-27T03:40:57.209Z,63.16
2023-04-27T03:41:57.208Z,61.07
2023-04-27T03:42:59.043Z,61.23
2023-04-27T03:43:57.188Z,63.00
2023-04-27T03:44:57.175Z,64.61
2023-04-27T03:45:57.199Z,62.20
2023-04-27T03:46:57.157Z,63.00
2023-04-27T03:47:58.225Z,63.81
2023-04-27T03:48:57.130Z,64.13
2023-04-27T03:49:57.119Z,63.97
2023-04-27T03:51:03.648Z,62.68
2023-04-27T03:52:04.234Z,62.20
2023-04-27T03:53:10.213Z,63.16
2023-04-27T03:53:58.086Z,63.16
2023-04-27T03:54:57.067Z,62.36
2023-04-27T03:55:57.061Z,62.68
2023-04-27T03:56:57.060Z,61.55
2023-04-27T03:57:57.033Z,60.59
2023-04-27T03:58:57.048Z,62.52
2023-04-27T03:59:57.008Z,62.04
2023-04-27T04:00:57.000Z,61.23
2023-04-27T04:01:59.566Z,61.87
2023-04-27T04:02:57.135Z,60.75
2023-04-27T04:03:57.248Z,62.04
2023-04-27T04:04:57.127Z,62.68
2023-04-27T04:05:57.009Z,62.84
2023-04-27T04:06:56.921Z,64.29
2023-04-27T04:07:56.925Z,62.52
2023-04-27T04:08:56.946Z,63.00
2023-04-27T04:09:56.903Z,63.33
2023-04-27T04:10:56.884Z,63.97
2023-04-27T04:11:56.882Z,63.65
2023-04-27T04:12:56.879Z,63.16
2023-04-27T04:13:56.870Z,64.45
2023-04-27T04:14:56.899Z,64.45
2023-04-27T04:15:56.862Z,63.16
2023-04-27T04:16:56.831Z,63.97
2023-04-27T04:17:56.814Z,62.20
2023-04-27T04:18:56.874Z,62.52
2023-04-27T04:19:56.827Z,62.84
2023-04-27T04:20:56.773Z,63.65
2023-04-27T04:21:56.761Z,62.36
2023-04-27T04:22:56.755Z,62.52
2023-04-27T04:23:56.742Z,62.68
2023-04-27T04:24:56.734Z,63.00
2023-04-27T04:25:56.789Z,63.33
2023-04-27T04:26:56.701Z,62.84
2023-04-27T04:27:56.703Z,61.87
2023-04-27T04:28:56.672Z,59.46
2023-04-27T04:29:56.717Z,62.20
2023-04-27T04:30:56.738Z,61.07
2023-04-27T04:31:56.646Z,60.91
2023-04-27T04:32:56.645Z,63.49
2023-04-27T04:33:56.628Z,63.00
2023-04-27T04:34:56.617Z,61.87
2023-04-27T04:35:56.671Z,60.91
2023-04-27T04:36:56.596Z,63.81
2023-04-27T04:37:56.584Z,63.65
2023-04-27T04:38:56.562Z,62.84
2023-04-27T04:39:56.573Z,63.00
2023-04-27T04:40:56.543Z,63.33
2023-04-27T04:41:56.584Z,63.65
2023-04-27T04:42:56.524Z,62.20
2023-04-27T04:43:56.507Z,62.52
2023-04-27T04:44:56.498Z,62.04
2023-04-27T04:45:56.495Z,63.97
2023-04-27T04:46:56.585Z,63.33
2023-04-27T04:47:56.479Z,63.49
2023-04-27T04:48:56.459Z,63.00
2023-04-27T04:49:56.441Z,63.65
2023-04-27T04:50:56.426Z,62.84
2023-04-27T04:51:56.429Z,62.52
2023-04-27T04:52:56.430Z,63.33
2023-04-27T04:53:56.396Z,63.65
2023-04-27T04:54:56.399Z,64.29
2023-04-27T04:55:56.376Z,63.65
2023-04-27T04:56:56.504Z,64.29
2023-04-27T04:57:56.386Z,63.16
2023-04-27T04:58:56.341Z,63.97
2023-04-27T04:59:57.322Z,63.65
2023-04-27T05:00:56.694Z,63.97
2023-04-27T05:01:56.542Z,62.36
2023-04-27T05:02:56.521Z,62.68
2023-04-27T05:03:56.430Z,63.49
2023-04-27T05:04:56.395Z,63.33
2023-04-27T05:05:56.267Z,64.13
2023-04-27T05:06:56.258Z,63.65
2023-04-27T05:07:56.245Z,62.84
2023-04-27T05:08:56.278Z,66.39
2023-04-27T05:09:56.528Z,65.42
2023-04-27T05:10:56.202Z,63.33
2023-04-27T05:11:56.192Z,63.33
2023-04-27T05:12:56.270Z,64.78
2023-04-27T05:13:56.243Z,65.74
2023-04-27T05:14:56.177Z,64.13
2023-04-27T05:15:56.209Z,64.45
2023-04-27T05:16:56.136Z,66.39
2023-04-27T05:17:56.180Z,65.26
2023-04-27T05:18:56.126Z,65.10
2023-04-27T05:19:56.113Z,64.45
2023-04-27T05:20:56.109Z,62.84
2023-04-27T05:21:56.079Z,65.10
2023-04-27T05:22:56.061Z,64.94
2023-04-27T05:23:56.056Z,65.58
2023-04-27T05:24:56.091Z,65.74
2023-04-27T05:25:56.027Z,63.65
2023-04-27T05:26:56.036Z,63.97
2023-04-27T05:27:56.040Z,63.65
2023-04-27T05:28:56.002Z,63.16
2023-04-27T05:29:56.027Z,64.29
2023-04-27T05:30:55.972Z,63.49
2023-04-27T05:31:56.022Z,64.78
2023-04-27T05:32:55.984Z,62.68
2023-04-27T05:33:55.949Z,62.20
2023-04-27T05:34:55.943Z,64.13
2023-04-27T05:35:55.962Z,63.33
2023-04-27T05:36:55.909Z,64.29
2023-04-27T05:37:55.889Z,65.26
2023-04-27T05:38:55.895Z,64.13
2023-04-27T05:39:55.877Z,64.29
2023-04-27T05:40:55.888Z,63.81
2023-04-27T05:41:55.845Z,64.29
2023-04-27T05:42:55.847Z,63.49
2023-04-27T05:43:55.829Z,63.16
2023-04-27T05:44:55.805Z,62.52
2023-04-27T05:45:55.861Z,62.84
2023-04-27T05:46:55.817Z,62.20
2023-04-27T05:47:55.840Z,62.04
2023-04-27T05:48:55.768Z,61.71
2023-04-27T05:49:55.763Z,62.52
2023-04-27T05:50:55.743Z,61.87
2023-04-27T05:51:55.811Z,61.87
2023-04-27T05:52:55.733Z,61.71
2023-04-27T05:53:55.708Z,61.87
2023-04-27T05:54:55.697Z,60.42
2023-04-27T05:55:56.392Z,61.23
2023-04-27T05:56:55.752Z,61.39
2023-04-27T05:58:07.146Z,62.04
2023-04-27T05:58:55.653Z,60.59
2023-04-27T05:59:55.652Z,61.07
2023-04-27T06:00:55.643Z,61.71
2023-04-27T06:01:55.629Z,61.55
2023-04-27T06:02:55.829Z,61.71
2023-04-27T06:03:55.672Z,60.91
2023-04-27T06:04:56.270Z,60.10
2023-04-27T06:05:57.488Z,61.87
2023-04-27T06:06:55.582Z,60.91
2023-04-27T06:07:55.577Z,61.55
2023-04-27T06:08:55.534Z,61.07
2023-04-27T06:09:55.530Z,61.55
2023-04-27T06:10:55.519Z,61.71
2023-04-27T06:11:55.502Z,60.75
2023-04-27T06:12:55.506Z,61.23
2023-04-27T06:13:55.524Z,61.23
2023-04-27T06:14:55.471Z,60.42
2023-04-27T06:15:55.543Z,61.39
2023-04-27T06:16:55.452Z,60.59
2023-04-27T06:17:55.486Z,61.39
2023-04-27T06:18:55.507Z,61.07
2023-04-27T06:19:55.427Z,61.23
2023-04-27T06:20:55.396Z,60.42
2023-04-27T06:21:55.405Z,60.59
2023-04-27T06:22:55.378Z,60.42
2023-04-27T06:23:55.414Z,60.42
2023-04-27T06:24:55.383Z,61.07
2023-04-27T06:25:55.336Z,60.75
2023-04-27T06:26:55.342Z,60.26
2023-04-27T06:27:55.351Z,61.07
2023-04-27T06:28:55.322Z,61.23
2023-04-27T06:29:55.365Z,60.42
2023-04-27T06:30:55.309Z,59.94
2023-04-27T06:31:55.329Z,60.59
2023-04-27T06:32:55.291Z,60.10
2023-04-27T06:33:55.280Z,60.59
2023-04-27T06:34:55.342Z,60.10
2023-04-27T06:35:55.234Z,60.42
2023-04-27T06:36:55.232Z,60.75
2023-04-27T06:37:55.213Z,59.94
2023-04-27T06:38:55.197Z,59.78
2023-04-27T06:39:55.206Z,60.10
2023-04-27T06:40:55.186Z,59.94
2023-04-27T06:41:55.175Z,60.26
2023-04-27T06:42:55.168Z,60.26
2023-04-27T06:43:56.799Z,59.94
2023-04-27T06:44:55.155Z,60.26
2023-04-27T06:45:55.173Z,58.17
2023-04-27T06:46:55.107Z,59.94
2023-04-27T06:47:55.149Z,59.78
2023-04-27T06:48:55.088Z,59.78
2023-04-27T06:49:55.097Z,59.94
2023-04-27T06:50:55.102Z,59.78
2023-04-27T06:51:55.040Z,60.42
2023-04-27T06:52:55.053Z,59.78
2023-04-27T06:53:55.044Z,60.10
2023-04-27T06:54:55.016Z,58.97
2023-04-27T06:55:55.021Z,59.62
2023-04-27T06:56:55.041Z,59.30
2023-04-27T06:57:54.980Z,59.78
2023-04-27T06:58:54.987Z,59.94
2023-04-27T06:59:54.956Z,59.62
2023-04-27T07:00:54.955Z,59.62
2023-04-27T07:01:54.995Z,60.10
2023-04-27T07:02:54.966Z,59.78
2023-04-27T07:03:55.093Z,59.94
2023-04-27T07:04:54.952Z,60.59
2023-04-27T07:05:54.897Z,61.23
2023-04-27T07:06:54.881Z,60.91
2023-04-27T07:07:54.902Z,60.59
2023-04-27T07:08:54.853Z,60.75
2023-04-27T07:09:54.852Z,60.42
2023-04-27T07:10:54.830Z,59.62
2023-04-27T07:11:54.819Z,60.59
2023-04-27T07:12:54.892Z,59.94
2023-04-27T07:13:54.816Z,60.42
2023-04-27T07:14:54.802Z,59.46
2023-04-27T07:15:54.790Z,59.94
2023-04-27T07:16:55.461Z,60.42
2023-04-27T07:17:54.816Z,60.42
2023-04-27T07:18:54.893Z,60.26
2023-04-27T07:19:54.726Z,59.30
2023-04-27T07:20:54.745Z,60.75
2023-04-27T07:21:54.701Z,60.75
2023-04-27T07:22:54.698Z,60.10
2023-04-27T07:23:56.117Z,58.65
2023-04-27T07:24:54.663Z,59.94
2023-04-27T07:25:54.667Z,59.94
2023-04-27T07:26:54.637Z,59.62
2023-04-27T07:27:54.635Z,60.26
2023-04-27T07:28:54.692Z,58.49
2023-04-27T07:29:54.606Z,58.65
2023-04-27T07:30:54.626Z,58.97
2023-04-27T07:31:54.627Z,59.78
2023-04-27T07:32:54.886Z,59.46
2023-04-27T07:33:54.584Z,59.46
2023-04-27T07:34:54.661Z,59.14
2023-04-27T07:35:54.635Z,58.49
2023-04-27T07:36:54.739Z,57.52
2023-04-27T07:37:54.531Z,58.33
2023-04-27T07:38:54.511Z,58.49
2023-04-27T07:39:54.565Z,59.14
2023-04-27T07:40:54.505Z,57.52
2023-04-27T07:41:54.484Z,58.97
2023-04-27T07:42:54.471Z,60.26
2023-04-27T07:43:54.442Z,59.46
2023-04-27T07:44:54.531Z,58.97
2023-04-27T07:45:54.526Z,59.46
2023-04-27T07:46:54.542Z,59.14
2023-04-27T07:47:54.886Z,57.52
2023-04-27T07:48:54.392Z,58.97
2023-04-27T07:49:54.386Z,60.75
2023-04-27T07:50:54.415Z,62.36
2023-04-27T07:51:54.355Z,60.26
2023-04-27T07:52:54.331Z,59.46
2023-04-27T07:53:54.352Z,60.59
2023-04-27T07:54:54.496Z,61.39
2023-04-27T07:55:54.349Z,60.10
2023-04-27T07:56:54.303Z,61.23
2023-04-27T07:57:54.323Z,62.36
2023-04-27T07:58:54.291Z,61.87
2023-04-27T07:59:54.273Z,62.52
2023-04-27T08:00:54.239Z,62.68
2023-04-27T08:01:57.251Z,61.87
2023-04-27T08:02:55.503Z,62.36
2023-04-27T08:03:54.462Z,62.68
2023-04-27T08:04:54.491Z,62.36
2023-04-27T08:05:54.347Z,61.71
2023-04-27T08:06:54.838Z,61.39
2023-04-27T08:07:54.654Z,61.55
2023-04-27T08:08:54.166Z,63.00
2023-04-27T08:09:54.131Z,63.81
2023-04-27T08:10:54.146Z,63.33
2023-04-27T08:11:54.152Z,61.71
2023-04-27T08:12:54.103Z,65.26
2023-04-27T08:13:54.098Z,63.65
2023-04-27T08:14:54.062Z,62.84
2023-04-27T08:15:54.059Z,63.33
2023-04-27T08:16:54.145Z,64.45
2023-04-27T08:17:54.094Z,62.52
2023-04-27T08:18:54.007Z,64.61
2023-04-27T08:19:54.005Z,63.81
2023-04-27T08:20:53.995Z,61.39
2023-04-27T08:21:54.000Z,63.65
2023-04-27T08:22:54.031Z,62.36
2023-04-27T08:23:53.975Z,62.84
2023-04-27T08:24:53.971Z,64.61
2023-04-27T08:25:53.937Z,64.45
2023-04-27T08:26:53.934Z,63.81
2023-04-27T08:27:53.962Z,64.94
2023-04-27T08:28:53.899Z,63.49
2023-04-27T08:29:53.905Z,64.61
2023-04-27T08:30:53.905Z,63.49
2023-04-27T08:31:56.303Z,64.61
2023-04-27T08:32:53.897Z,64.45
2023-04-27T08:33:53.878Z,64.29
2023-04-27T08:34:53.835Z,64.29
2023-04-27T08:35:53.811Z,62.52
2023-04-27T08:36:53.804Z,61.71
2023-04-27T08:37:53.822Z,62.84
2023-04-27T08:38:53.806Z,61.87
2023-04-27T08:39:53.765Z,62.36
2023-04-27T08:40:53.771Z,62.04
2023-04-27T08:41:53.738Z,62.52
2023-04-27T08:42:53.729Z,62.84
2023-04-27T08:43:53.776Z,62.20
2023-04-27T08:44:53.704Z,61.39
2023-04-27T08:45:53.719Z,63.16
2023-04-27T08:46:53.915Z,61.71
2023-04-27T08:47:53.694Z,60.75
2023-04-27T08:48:53.666Z,60.59
2023-04-27T08:49:54.192Z,61.55
2023-04-27T08:50:53.640Z,60.10
2023-04-27T08:51:53.634Z,59.78
2023-04-27T08:52:53.621Z,58.49
2023-04-27T08:53:53.603Z,57.69
2023-04-27T08:54:53.629Z,59.46
2023-04-27T08:55:53.591Z,59.14
2023-04-27T08:56:53.569Z,60.26
2023-04-27T08:57:53.557Z,59.14
2023-04-27T08:58:54.023Z,58.81
2023-04-27T08:59:53.551Z,59.14
2023-04-27T09:00:53.538Z,59.62
2023-04-27T09:01:53.581Z,58.33
2023-04-27T09:02:53.653Z,57.36
2023-04-27T09:03:53.557Z,57.69
2023-04-27T09:04:53.653Z,58.65
2023-04-27T09:06:04.788Z,58.49
2023-04-27T09:06:53.471Z,61.23
2023-04-27T09:07:53.454Z,60.42
2023-04-27T09:08:53.432Z,61.39
2023-04-27T09:09:53.418Z,61.87
2023-04-27T09:10:53.465Z,61.07
2023-04-27T09:11:53.398Z,60.42
2023-04-27T09:12:53.389Z,61.71
2023-04-27T09:13:53.406Z,61.87
2023-04-27T09:14:53.393Z,60.91
2023-04-27T09:15:53.357Z,61.87
2023-04-27T09:16:53.454Z,62.52
2023-04-27T09:17:53.369Z,63.16
2023-04-27T09:18:53.319Z,61.71
2023-04-27T09:19:53.322Z,62.36
2023-04-27T09:20:53.286Z,61.07
2023-04-27T09:21:53.329Z,59.46
2023-04-27T09:22:53.279Z,60.10
2023-04-27T09:23:53.255Z,61.07
2023-04-27T09:24:53.273Z,59.46
2023-04-27T09:25:53.261Z,59.62
2023-04-27T09:26:53.219Z,61.39
2023-04-27T09:27:53.270Z,61.55
2023-04-27T09:28:53.209Z,62.04
2023-04-27T09:29:53.175Z,59.62
2023-04-27T09:30:53.173Z,61.07
2023-04-27T09:31:53.217Z,59.46
2023-04-27T09:32:53.209Z,60.91
2023-04-27T09:33:53.156Z,60.10
2023-04-27T09:34:53.131Z,60.10
2023-04-27T09:35:53.107Z,59.78
2023-04-27T09:36:53.101Z,61.23
2023-04-27T09:37:53.091Z,60.42
2023-04-27T09:38:53.116Z,60.10
2023-04-27T09:39:53.085Z,61.71
2023-04-27T09:40:53.067Z,60.75
2023-04-27T09:41:53.033Z,63.16
2023-04-27T09:42:53.032Z,60.26
2023-04-27T09:43:53.049Z,61.23
2023-04-27T09:44:53.009Z,62.84
2023-04-27T09:45:53.005Z,63.00
2023-04-27T09:46:52.974Z,62.68
2023-04-27T09:47:53.034Z,62.84
2023-04-27T09:48:52.994Z,63.16
2023-04-27T09:49:52.960Z,61.87
2023-04-27T09:50:52.935Z,63.65
2023-04-27T09:51:52.922Z,62.36
2023-04-27T09:52:52.914Z,63.49
2023-04-27T09:53:53.727Z,63.16
2023-04-27T09:54:52.893Z,63.00
2023-04-27T09:55:52.880Z,62.68
2023-04-27T09:56:52.853Z,61.87
2023-04-27T09:57:52.859Z,62.52
2023-04-27T09:58:52.855Z,59.94
2023-04-27T09:59:52.872Z,62.04
2023-04-27T10:00:52.838Z,61.87
2023-04-27T10:01:52.819Z,64.61
2023-04-27T10:02:53.868Z,63.16
2023-04-27T10:03:52.950Z,62.04
2023-04-27T10:04:52.921Z,64.45
2023-04-27T10:05:52.756Z,61.39
2023-04-27T10:06:52.764Z,63.33
2023-04-27T10:07:52.744Z,62.52
2023-04-27T10:08:52.744Z,64.61
2023-04-27T10:09:52.700Z,63.16
2023-04-27T10:10:52.756Z,62.52
2023-04-27T10:11:52.702Z,62.68
2023-04-27T10:12:52.708Z,63.16
2023-04-27T10:13:54.452Z,61.55
2023-04-27T10:14:52.656Z,62.20
2023-04-27T10:15:52.693Z,63.16
2023-04-27T10:16:52.654Z,62.68
2023-04-27T10:17:52.731Z,61.71
2023-04-27T10:18:52.609Z,61.71
2023-04-27T10:19:54.612Z,62.68
2023-04-27T10:20:52.576Z,61.07
2023-04-27T10:21:52.655Z,60.42
2023-04-27T10:22:52.593Z,61.23
2023-04-27T10:23:52.550Z,60.10
2023-04-27T10:24:52.551Z,60.59
2023-04-27T10:25:52.542Z,61.87
2023-04-27T10:26:52.562Z,60.75
2023-04-27T10:27:52.535Z,60.59
2023-04-27T10:28:52.513Z,58.81
2023-04-27T10:29:52.484Z,58.81
2023-04-27T10:30:52.505Z,57.52
2023-04-27T10:31:52.451Z,60.91
2023-04-27T10:32:52.517Z,58.49
2023-04-27T10:33:52.452Z,58.81
2023-04-27T10:34:52.428Z,58.97
2023-04-27T10:35:52.421Z,56.88
2023-04-27T10:36:52.415Z,57.69
2023-04-27T10:37:52.435Z,58.65
2023-04-27T10:38:52.396Z,58.33
2023-04-27T10:39:54.775Z,59.94
2023-04-27T10:40:52.375Z,59.46
2023-04-27T10:41:52.344Z,61.39
2023-04-27T10:42:52.378Z,58.49
2023-04-27T10:43:52.325Z,59.46
2023-04-27T10:44:52.319Z,60.10
2023-04-27T10:45:52.354Z,60.91
2023-04-27T10:46:52.317Z,60.42
2023-04-27T10:47:52.331Z,60.10
2023-04-27T10:48:52.327Z,58.65
2023-04-27T10:49:52.274Z,59.14
2023-04-27T10:50:52.267Z,58.17
2023-04-27T10:51:52.264Z,58.81
2023-04-27T10:52:52.272Z,58.65
2023-04-27T10:53:52.294Z,58.01
2023-04-27T10:54:52.230Z,58.49
2023-04-27T10:55:52.217Z,56.88
2023-04-27T10:56:52.212Z,57.36
2023-04-27T10:57:52.204Z,59.46
2023-04-27T10:58:52.193Z,59.62
2023-04-27T10:59:52.288Z,57.20
2023-04-27T11:00:52.147Z,57.36
2023-04-27T11:01:52.161Z,56.40
2023-04-27T11:02:52.187Z,59.46
2023-04-27T11:03:52.176Z,59.78
2023-04-27T11:04:52.167Z,58.81
2023-04-27T11:05:52.122Z,57.52
2023-04-27T11:06:52.102Z,56.88
2023-04-27T11:07:52.081Z,57.04
2023-04-27T11:08:52.152Z,57.36
2023-04-27T11:09:52.082Z,57.20
2023-04-27T11:10:52.057Z,56.40
2023-04-27T11:11:52.050Z,56.88
2023-04-27T11:12:52.018Z,56.88
2023-04-27T11:13:52.000Z,56.24
2023-04-27T11:14:52.004Z,57.85
2023-04-27T11:15:52.050Z,57.20
2023-04-27T11:16:51.991Z,57.69
2023-04-27T11:17:52.037Z,59.14
2023-04-27T11:18:51.974Z,61.07
2023-04-27T11:19:51.927Z,61.23
2023-04-27T11:20:51.980Z,61.23
2023-04-27T11:21:51.911Z,62.36
2023-04-27T11:22:51.907Z,62.52
2023-04-27T11:23:51.900Z,59.94
2023-04-27T11:24:51.884Z,58.81
2023-04-27T11:25:51.872Z,59.62
2023-04-27T11:26:51.885Z,62.52
2023-04-27T11:27:51.850Z,61.71
2023-04-27T11:28:51.835Z,58.49
2023-04-27T11:29:51.843Z,59.46
2023-04-27T11:30:51.822Z,60.26
2023-04-27T11:31:51.975Z,60.59
2023-04-27T11:32:51.829Z,60.75
2023-04-27T11:33:51.792Z,61.07
2023-04-27T11:34:53.583Z,62.36
2023-04-27T11:35:51.767Z,62.84
2023-04-27T11:36:51.744Z,63.16
2023-04-27T11:37:52.744Z,62.84
2023-04-27T11:38:51.792Z,60.91
2023-04-27T11:39:51.732Z,61.87
2023-04-27T11:40:51.705Z,62.52
2023-04-27T11:41:51.699Z,64.61
2023-04-27T11:42:51.714Z,63.81
2023-04-27T11:43:51.995Z,61.55
2023-04-27T11:44:51.660Z,63.16
2023-04-27T11:45:51.660Z,63.65
2023-04-27T11:46:51.699Z,61.39
2023-04-27T11:47:51.695Z,63.81
2023-04-27T11:48:51.630Z,63.97
2023-04-27T11:49:52.618Z,63.00
2023-04-27T11:50:51.600Z,60.91
2023-04-27T11:51:51.605Z,61.55
2023-04-27T11:52:51.851Z,61.71
2023-04-27T11:53:51.577Z,61.23
2023-04-27T11:54:51.573Z,60.91
2023-04-27T11:55:51.544Z,60.91
2023-04-27T11:56:51.550Z,61.07
2023-04-27T11:57:51.548Z,60.75
2023-04-27T11:58:51.515Z,62.84
2023-04-27T11:59:51.520Z,61.07
2023-04-27T12:00:51.511Z,62.52
2023-04-27T12:01:51.494Z,60.91
2023-04-27T12:02:51.666Z,62.20
2023-04-27T12:03:51.645Z,62.36
2023-04-27T12:04:51.769Z,60.26
2023-04-27T12:05:51.514Z,61.55
2023-04-27T12:06:51.437Z,61.87
2023-04-27T12:07:51.462Z,59.46
2023-04-27T12:08:52.411Z,60.59
2023-04-27T12:09:51.421Z,61.39
2023-04-27T12:10:51.377Z,62.68
2023-04-27T12:11:51.368Z,62.36
2023-04-27T12:12:51.384Z,62.36
2023-04-27T12:13:51.355Z,62.84
2023-04-27T12:14:51.333Z,63.16
2023-04-27T12:15:51.345Z,63.16
2023-04-27T12:16:51.381Z,60.42
2023-04-27T12:17:51.326Z,59.30
2023-04-27T12:18:51.345Z,60.75
2023-04-27T12:19:51.286Z,62.04
2023-04-27T12:20:51.315Z,62.52
2023-04-27T12:21:51.249Z,62.52
2023-04-27T12:22:51.251Z,60.75
2023-04-27T12:23:51.263Z,61.87
2023-04-27T12:24:51.232Z,61.07
2023-04-27T12:25:51.228Z,59.30
2023-04-27T12:26:51.198Z,63.33
2023-04-27T12:27:51.200Z,62.84
2023-04-27T12:28:51.232Z,61.39
2023-04-27T12:29:51.201Z,58.81
2023-04-27T12:30:51.182Z,61.87
2023-04-27T12:31:51.156Z,61.39
2023-04-27T12:32:51.224Z,63.65
2023-04-27T12:33:51.147Z,62.04
2023-04-27T12:34:51.158Z,62.36
2023-04-27T12:35:51.096Z,62.84
2023-04-27T12:36:51.091Z,59.46
2023-04-27T12:37:51.080Z,60.59
2023-04-27T12:38:51.702Z,61.55
2023-04-27T12:39:51.103Z,63.33
2023-04-27T12:40:51.051Z,61.55
2023-04-27T12:41:51.036Z,62.20
2023-04-27T12:42:51.042Z,61.87
2023-04-27T12:43:51.019Z,60.42
2023-04-27T12:44:50.989Z,61.07
2023-04-27T12:45:51.074Z,60.91
2023-04-27T12:46:51.072Z,59.78
2023-04-27T12:48:01.564Z,60.26
2023-04-27T12:48:51.040Z,60.91
2023-04-27T12:49:50.980Z,60.10
2023-04-27T12:50:50.993Z,59.46
2023-04-27T12:51:50.926Z,60.75
2023-04-27T12:52:50.905Z,61.39